This is the latest recevied weather packets stored in our database for station/object AE0NK. If no packets are shown the sender has not sent any weather packets the latest 10 day(s).
| Time | Temp. | Humidity | Pressure | Rain* | Wind** | Luminosity | Snow |
|---|---|---|---|---|---|---|---|
| 1777147099 | 22.22° C | 45% | 1013.5 hPa | 0 mm | - | 800 W/m² | - |
| 1777146797 | 22.22° C | 45% | 1013.5 hPa | 0 mm | - | 814 W/m² | - |
| 1777146494 | 21.67° C | 45% | 1013.7 hPa | 0 mm | - | 816 W/m² | - |
| 1777146192 | 21.67° C | 45% | 1013.8 hPa | 0 mm | - | 824 W/m² | - |
| 1777145910 | 21.67° C | 46% | 1013.7 hPa | 0 mm | - | 835 W/m² | - |
| 1777145605 | 21.67° C | 48% | 1013.8 hPa | 0 mm | - | 810 W/m² | - |
| 1777145304 | 21.67° C | 47% | 1014 hPa | 0 mm | - | 844 W/m² | - |
| 1777145003 | 21.67° C | 47% | 1013.9 hPa | 0 mm | - | 853 W/m² | - |
| 1777144700 | 21.67° C | 47% | 1013.9 hPa | 0 mm | - | 858 W/m² | - |
| 1777144399 | 21.67° C | 48% | 1013.9 hPa | 0 mm | - | 865 W/m² | - |
| 1777144099 | 21.67° C | 48% | 1014 hPa | 0 mm | - | 875 W/m² | - |
| 1777143796 | 21.67° C | 48% | 1013.9 hPa | 0 mm | - | 856 W/m² | - |
| 1777143511 | 21.11° C | 50% | 1013.8 hPa | 0 mm | - | 874 W/m² | - |
| 1777143208 | 20.56° C | 49% | 1013.8 hPa | 0 mm | - | 858 W/m² | - |
| 1777142905 | 21.11° C | 50% | 1013.8 hPa | 0 mm | - | 849 W/m² | - |
| 1777142603 | 20.56° C | 51% | 1013.8 hPa | 0 mm | - | 847 W/m² | - |
| 1777142300 | 20.56° C | 51% | 1013.9 hPa | 0 mm | - | 735 W/m² | - |
| 1777141998 | 20.56° C | 50% | 1013.9 hPa | 0 mm | - | 805 W/m² | - |
| 1777141699 | 20.56° C | 51% | 1014 hPa | 0 mm | - | 789 W/m² | - |
| 1777141399 | 20.56° C | 49% | 1014 hPa | 0 mm | - | 821 W/m² | - |
| 1777141098 | 20° C | 50% | 1014.2 hPa | 0 mm | - | 807 W/m² | - |
| 1777140796 | 20.56° C | 52% | 1014.2 hPa | 0 mm | - | 770 W/m² | - |
| 1777140493 | 21.11° C | 49% | 1014.4 hPa | 0 mm | - | 877 W/m² | - |
| 1777140211 | 20.56° C | 50% | 1014.3 hPa | 0 mm | - | 860 W/m² | - |
| 1777139907 | 20.56° C | 50% | 1014.4 hPa | 0 mm | - | 868 W/m² | - |
* Rain latest hour (hover to see other rain measurements)
** Current wind speed in m/s (hover to see current wind gust speed)